Time;durP1;ratioP1;P1;durP2;ratioP2;P2;SDS_P1;SDS_P2;PMS_P1;PMS_P2;Temp;Humidity;BMP_temperature;BMP_pressure;BME280_temperature;BME280_humidity;BME280_pressure;Samples;Min_cycle;Max_cycle;Signal;HPM_P1;HPM_P2
2022/09/25 00:00:16;;;;;;;5.90;1.80;;;9.10;99.90;;;;;;5075575;28;20090;-55
2022/09/25 00:02:42;;;;;;;6.22;2.13;;;9.00;99.90;;;;;;5075851;28;20063;-54
2022/09/25 00:05:08;;;;;;;5.70;2.10;;;9.00;99.90;;;;;;5075884;28;20093;-55
2022/09/25 00:07:33;;;;;;;5.20;1.80;;;8.90;99.90;;;;;;5075860;28;20399;-55
2022/09/25 00:09:59;;;;;;;3.78;1.98;;;8.90;99.90;;;;;;5075838;28;20107;-55
2022/09/25 00:12:24;;;;;;;7.32;2.03;;;9.00;99.90;;;;;;5075516;28;20075;-53
2022/09/25 00:14:51;;;;;;;3.08;1.50;;;8.90;99.90;;;;;;5075672;28;20082;-55
2022/09/25 00:17:17;;;;;;;3.92;1.60;;;9.00;99.90;;;;;;5075048;28;20390;-55
2022/09/25 00:19:48;;;;;;;4.32;2.13;;;8.90;99.90;;;;;;5075508;28;20037;-54
2022/09/25 00:22:18;;;;;;;4.20;1.70;;;8.90;99.90;;;;;;5075725;28;20485;-55
2022/09/25 00:24:44;;;;;;;3.83;2.05;;;8.90;99.90;;;;;;5075564;28;20036;-54
2022/09/25 00:27:10;;;;;;;6.30;1.95;;;8.80;99.90;;;;;;5075425;28;20033;-54
2022/09/25 00:29:38;;;;;;;4.65;2.00;;;8.70;99.90;;;;;;5075304;28;20052;-53
2022/09/25 00:32:05;;;;;;;8.57;2.55;;;8.80;99.90;;;;;;5075478;28;20044;-53
2022/09/25 00:34:31;;;;;;;3.90;2.22;;;8.70;99.90;;;;;;5075186;28;20036;-56
2022/09/25 00:36:57;;;;;;;6.68;1.77;;;8.70;99.90;;;;;;5075257;28;20478;-54
2022/09/25 00:39:23;;;;;;;4.75;2.05;;;8.70;99.90;;;;;;5075123;28;20079;-54
2022/09/25 00:41:48;;;;;;;3.30;1.70;;;8.70;99.90;;;;;;5074993;28;20059;-55
2022/09/25 00:44:42;;;;;;;1.98;1.45;;;8.70;99.90;;;;;;5074906;28;20060;-56
2022/09/25 00:47:09;;;;;;;3.13;1.77;;;8.70;99.90;;;;;;5075070;28;20037;-55
2022/09/25 00:49:35;;;;;;;5.82;2.13;;;8.70;99.90;;;;;;5074984;28;20044;-55
2022/09/25 00:52:06;;;;;;;5.82;2.25;;;8.70;99.90;;;;;;5074959;28;20061;-55
2022/09/25 00:54:43;;;;;;;4.88;1.90;;;8.70;99.90;;;;;;5074778;28;20064;-56
2022/09/25 00:57:14;;;;;;;4.32;1.58;;;8.60;99.90;;;;;;5075098;28;20056;-56
2022/09/25 00:59:43;;;;;;;3.72;1.73;;;8.70;99.90;;;;;;5074707;28;20386;-56
2022/09/25 01:02:12;;;;;;;;;;;8.60;99.90;;;;;;5075182;28;20060;-56
2022/09/25 01:04:40;;;;;;;4.43;1.67;;;8.70;99.90;;;;;;5074692;28;19916;-56
2022/09/25 01:07:08;;;;;;;3.03;1.85;;;8.60;99.90;;;;;;5074667;28;20410;-55
2022/09/25 01:09:35;;;;;;;4.13;2.15;;;8.60;99.90;;;;;;5074628;28;20445;-56
2022/09/25 01:12:01;;;;;;;3.05;1.67;;;8.60;99.90;;;;;;5074533;28;20040;-56
2022/09/25 01:14:27;;;;;;;3.50;1.50;;;8.60;99.90;;;;;;5074458;28;20127;-55
2022/09/25 01:17:06;;;;;;;3.88;1.50;;;8.50;99.90;;;;;;5074448;28;20029;-55
2022/09/25 01:20:09;;;;;;;3.45;1.42;;;8.50;99.90;;;;;;5074349;28;20110;-56
2022/09/25 01:23:05;;;;;;;3.22;1.90;;;8.40;99.90;;;;;;5074132;28;20044;-54
2022/09/25 01:26:05;;;;;;;5.20;1.80;;;8.40;99.90;;;;;;5074300;28;20079;-56
2022/09/25 01:29:15;;;;;;;5.97;1.75;;;8.40;99.90;;;;;;5073975;28;20085;-56
2022/09/25 01:31:51;;;;;;;4.68;2.38;;;8.40;99.90;;;;;;5051724;28;20049;-54
2022/09/25 01:34:27;;;;;;;4.63;1.70;;;8.30;99.90;;;;;;5052104;28;20079;-56
2022/09/25 01:37:03;;;;;;;2.90;1.65;;;8.30;99.90;;;;;;5051928;28;20395;-55
2022/09/25 01:39:37;;;;;;;3.58;1.70;;;8.30;99.90;;;;;;5051822;28;20037;-56
2022/09/25 01:42:16;;;;;;;3.15;1.83;;;8.30;99.90;;;;;;5051807;28;20107;-54
2022/09/25 01:45:02;;;;;;;4.30;2.05;;;8.30;99.90;;;;;;5051858;28;20037;-55
2022/09/25 01:47:29;;;;;;;3.58;1.92;;;8.40;99.90;;;;;;5051796;28;20116;-56
2022/09/25 01:50:17;;;;;;;6.25;1.75;;;8.40;99.90;;;;;;5035414;28;20061;-55
2022/09/25 01:52:48;;;;;;;3.92;1.70;;;8.30;99.90;;;;;;5051460;28;20546;-55
2022/09/25 01:55:27;;;;;;;4.93;1.58;;;8.20;99.90;;;;;;5051730;28;20171;-54
2022/09/25 01:58:04;;;;;;;6.57;1.63;;;8.20;99.90;;;;;;5051572;28;20053;-56
2022/09/25 02:00:31;;;;;;;2.45;1.42;;;8.20;99.90;;;;;;5051580;28;20545;-55
2022/09/25 02:03:12;;;;;;;2.80;1.60;;;8.30;99.90;;;;;;5051663;28;20442;-55
2022/09/25 02:05:42;;;;;;;2.38;1.52;;;8.30;99.90;;;;;;5051735;28;20149;-55
2022/09/25 02:08:16;;;;;;;5.90;2.15;;;8.20;99.90;;;;;;5059590;28;20098;-53
2022/09/25 02:10:59;;;;;;;4.07;1.60;;;8.30;99.90;;;;;;5073789;28;20090;-54
2022/09/25 02:13:32;;;;;;;5.60;2.17;;;8.20;99.90;;;;;;5073675;28;20478;-55
2022/09/25 02:16:08;;;;;;;6.07;1.63;;;8.20;99.90;;;;;;5073724;28;20055;-55
2022/09/25 02:21:37;;;;;;;2.20;1.08;;;8.30;99.90;;;;;;5073601;28;20040;-55
2022/09/25 02:24:20;;;;;;;3.95;1.50;;;8.30;99.90;;;;;;5073592;28;20048;-56
2022/09/25 02:26:46;;;;;;;4.60;1.20;;;8.30;99.90;;;;;;5073041;28;20032;-54
2022/09/25 02:29:14;;;;;;;4.30;2.00;;;8.30;99.90;;;;;;5072882;28;20037;-55
2022/09/25 02:31:53;;;;;;;2.40;1.73;;;8.20;99.90;;;;;;5073519;28;20119;-56
2022/09/25 02:34:19;;;;;;;6.78;2.08;;;8.20;99.90;;;;;;5073588;28;20154;-56
2022/09/25 02:36:45;;;;;;;2.67;1.25;;;8.20;99.90;;;;;;5073407;28;20066;-56
2022/09/25 02:39:14;;;;;;;4.32;1.52;;;8.40;99.90;;;;;;5073358;28;20120;-56
2022/09/25 02:41:55;;;;;;;2.35;1.00;;;8.40;99.90;;;;;;5075658;28;20139;-54
2022/09/25 02:44:45;;;;;;;6.68;2.30;;;8.40;99.90;;;;;;5077415;28;20099;-55
2022/09/25 02:47:31;;;;;;;1.50;1.23;;;8.30;99.90;;;;;;5077215;28;20072;-55
2022/09/25 02:50:20;;;;;;;3.42;1.58;;;8.30;99.90;;;;;;5077283;28;20048;-55
2022/09/25 02:53:13;;;;;;;3.30;1.27;;;8.30;99.90;;;;;;5077222;28;20051;-54
2022/09/25 02:55:52;;;;;;;3.78;1.40;;;8.30;99.90;;;;;;5076285;28;20123;-55
2022/09/25 02:58:26;;;;;;;3.03;1.33;;;8.30;99.90;;;;;;5076021;28;20043;-56
2022/09/25 03:00:54;;;;;;;4.57;1.52;;;8.20;99.90;;;;;;5076762;28;20045;-56
2022/09/25 03:03:23;;;;;;;2.42;1.30;;;8.10;99.90;;;;;;5077055;28;20028;-55
2022/09/25 03:05:51;;;;;;;3.33;1.30;;;8.00;99.90;;;;;;5076597;28;20039;-56
2022/09/25 03:08:37;;;;;;;5.28;1.27;;;8.00;99.90;;;;;;5076850;28;20033;-55
2022/09/25 03:11:07;;;;;;;3.75;1.40;;;8.00;99.90;;;;;;5076891;28;20048;-55
2022/09/25 03:13:34;;;;;;;3.20;1.20;;;8.00;99.90;;;;;;5076730;28;20044;-54
2022/09/25 03:16:02;;;;;;;2.63;0.90;;;7.90;99.90;;;;;;5076786;28;20044;-55
2022/09/25 03:18:27;;;;;;;2.70;1.42;;;8.00;99.90;;;;;;5076672;28;20086;-56
2022/09/25 03:20:53;;;;;;;3.88;1.10;;;8.00;99.90;;;;;;5076434;28;20080;-55
2022/09/25 03:23:19;;;;;;;2.30;1.48;;;7.90;99.90;;;;;;5076478;28;20033;-55
2022/09/25 03:25:46;;;;;;;4.95;1.35;;;8.00;99.90;;;;;;5075940;28;20044;-56
2022/09/25 03:28:13;;;;;;;3.08;1.10;;;7.90;99.90;;;;;;5075767;28;20180;-55
2022/09/25 03:30:39;;;;;;;3.83;1.65;;;8.00;99.90;;;;;;5076110;28;20047;-56
2022/09/25 03:33:10;;;;;;;5.43;1.42;;;8.00;99.90;;;;;;5076398;28;20040;-54
2022/09/25 03:35:37;;;;;;;2.80;1.20;;;8.10;99.90;;;;;;5076457;28;20051;-55
2022/09/25 03:38:03;;;;;;;2.25;1.15;;;8.00;99.90;;;;;;5076077;28;20471;-54
2022/09/25 03:40:29;;;;;;;3.42;1.33;;;8.10;99.90;;;;;;5076120;28;20494;-54
2022/09/25 03:42:55;;;;;;;3.17;1.35;;;8.00;99.90;;;;;;5076353;28;20090;-53
2022/09/25 03:45:21;;;;;;;3.53;1.20;;;8.00;99.90;;;;;;5076309;28;20526;-55
2022/09/25 03:47:46;;;;;;;1.65;0.80;;;8.10;99.90;;;;;;5076080;28;20079;-55
2022/09/25 03:50:12;;;;;;;4.88;1.00;;;8.00;99.90;;;;;;5075379;28;20056;-54
2022/09/25 03:52:38;;;;;;;1.55;0.90;;;8.00;99.90;;;;;;5075082;28;20048;-54
2022/09/25 03:55:04;;;;;;;3.97;1.48;;;7.90;99.90;;;;;;5075386;28;20052;-55
2022/09/25 03:57:31;;;;;;;3.10;1.20;;;7.90;99.90;;;;;;5075382;28;20076;-54
2022/09/25 04:00:02;;;;;;;3.35;1.42;;;8.00;99.90;;;;;;5075012;28;20044;-54
2022/09/25 04:02:28;;;;;;;2.80;1.17;;;7.90;99.90;;;;;;5075908;28;20120;-55
2022/09/25 04:04:54;;;;;;;3.17;1.48;;;7.80;99.90;;;;;;5075887;28;20075;-55
2022/09/25 04:07:21;;;;;;;4.97;1.42;;;7.90;99.90;;;;;;5076297;28;20419;-55
2022/09/25 04:09:47;;;;;;;2.60;1.30;;;7.80;99.90;;;;;;5075700;28;20483;-55
2022/09/25 04:12:13;;;;;;;3.33;1.50;;;7.80;99.90;;;;;;5075624;28;20036;-53
2022/09/25 04:14:44;;;;;;;4.43;1.40;;;7.80;99.90;;;;;;5075624;28;20491;-55
2022/09/25 04:17:10;;;;;;;2.95;1.00;;;7.70;99.90;;;;;;5075485;28;20486;-56
2022/09/25 04:19:36;;;;;;;4.35;1.65;;;7.80;99.90;;;;;;5075577;28;20094;-55
2022/09/25 04:22:02;;;;;;;3.80;1.38;;;7.70;99.90;;;;;;5075638;28;20044;-55
2022/09/25 04:27:13;;;;;;;3.00;1.27;;;7.60;99.90;;;;;;5075422;28;20044;-55
2022/09/25 04:29:39;;;;;;;4.00;1.20;;;7.70;99.90;;;;;;5075454;28;20040;-56
2022/09/25 04:34:49;;;;;;;6.15;2.25;;;7.70;99.90;;;;;;5075351;28;20045;-55
2022/09/25 04:37:15;;;;;;;3.97;1.35;;;7.70;99.90;;;;;;5075073;28;20109;-54
2022/09/25 04:39:40;;;;;;;3.53;1.40;;;7.60;99.90;;;;;;5075126;28;20047;-54
2022/09/25 04:42:06;;;;;;;2.05;1.08;;;7.60;99.90;;;;;;5075644;28;20119;-54
2022/09/25 04:44:32;;;;;;;6.65;1.85;;;7.60;99.90;;;;;;5075162;28;20048;-54
2022/09/25 04:46:57;;;;;;;5.53;1.60;;;7.50;99.90;;;;;;5075079;28;20033;-53
2022/09/25 04:49:23;;;;;;;4.18;1.55;;;7.50;99.90;;;;;;5075034;28;20067;-54
2022/09/25 04:51:48;;;;;;;3.05;1.40;;;7.60;99.90;;;;;;5074922;28;20119;-57
2022/09/25 04:54:15;;;;;;;6.95;1.85;;;7.50;99.90;;;;;;5074505;28;20059;-55
2022/09/25 04:56:43;;;;;;;5.35;1.42;;;7.50;99.90;;;;;;5074900;28;20047;-56
2022/09/25 04:59:10;;;;;;;2.47;1.38;;;7.50;99.90;;;;;;5074838;28;20432;-56
2022/09/25 05:01:36;;;;;;;1.35;1.25;;;7.50;99.90;;;;;;5074710;28;20115;-54
2022/09/25 05:04:02;;;;;;;7.85;1.30;;;7.50;99.90;;;;;;5074362;28;20123;-57
2022/09/25 05:06:28;;;;;;;2.03;1.40;;;7.60;99.90;;;;;;5074707;28;20115;-56
2022/09/25 05:08:56;;;;;;;2.70;1.27;;;7.60;99.90;;;;;;5074565;28;20051;-56
2022/09/25 05:11:22;;;;;;;7.53;2.17;;;7.70;99.90;;;;;;5074571;28;20067;-56
2022/09/25 05:13:51;;;;;;;3.88;1.17;;;7.80;99.90;;;;;;5074565;28;20046;-57
2022/09/25 05:16:18;;;;;;;4.32;1.65;;;7.70;99.90;;;;;;5074509;28;20028;-56
2022/09/25 05:18:44;;;;;;;3.90;1.30;;;7.70;99.90;;;;;;5074387;28;20049;-55
2022/09/25 05:21:10;;;;;;;1.55;1.20;;;7.70;99.90;;;;;;5074378;28;20453;-55
2022/09/25 05:23:36;;;;;;;1.27;1.05;;;7.80;99.90;;;;;;5074050;28;20040;-56
2022/09/25 05:26:02;;;;;;;1.35;1.00;;;7.70;99.90;;;;;;5074255;28;20038;-56
2022/09/25 05:28:29;;;;;;;5.65;1.40;;;7.70;99.90;;;;;;5074271;28;20382;-56
2022/09/25 05:30:57;;;;;;;1.35;1.10;;;7.80;99.90;;;;;;5074074;28;20123;-56
2022/09/25 05:33:23;;;;;;;3.20;1.35;;;7.80;99.90;;;;;;5074269;28;20051;-55
2022/09/25 05:35:48;;;;;;;4.38;1.10;;;7.70;99.90;;;;;;5073874;28;20044;-56
2022/09/25 05:38:14;;;;;;;5.20;1.25;;;7.70;99.90;;;;;;5074086;28;20044;-55
2022/09/25 05:40:40;;;;;;;2.95;1.45;;;7.70;99.90;;;;;;5074079;28;20033;-55
2022/09/25 05:43:06;;;;;;;1.75;0.90;;;7.60;99.90;;;;;;5073929;28;20040;-55
2022/09/25 05:45:33;;;;;;;3.15;1.58;;;7.60;99.90;;;;;;5073881;28;20479;-53
2022/09/25 05:48:04;;;;;;;3.40;1.42;;;7.60;99.90;;;;;;5074209;28;20040;-55
2022/09/25 05:50:33;;;;;;;2.75;1.40;;;7.60;99.90;;;;;;5072802;28;20487;-56
2022/09/25 05:53:00;;;;;;;2.80;1.40;;;7.50;99.90;;;;;;5073562;28;20493;-55
2022/09/25 05:55:27;;;;;;;3.05;1.45;;;7.50;99.90;;;;;;5073302;28;20177;-55
2022/09/25 05:57:52;;;;;;;2.28;1.60;;;7.60;99.90;;;;;;5071708;28;20044;-55
2022/09/25 06:00:18;;;;;;;2.50;1.30;;;7.60;99.90;;;;;;5073161;28;20478;-55
2022/09/25 06:02:44;;;;;;;2.58;1.15;;;7.60;99.90;;;;;;5073941;28;20119;-55
2022/09/25 06:05:12;;;;;;;2.47;1.50;;;7.60;99.90;;;;;;5073757;28;20090;-54
2022/09/25 06:07:38;;;;;;;4.95;1.42;;;7.70;99.90;;;;;;5073894;28;20112;-55
2022/09/25 06:10:05;;;;;;;4.30;1.45;;;7.80;99.90;;;;;;5073725;28;20471;-54
2022/09/25 06:12:31;;;;;;;6.43;2.47;;;7.90;99.90;;;;;;5073794;28;20047;-54
2022/09/25 06:14:57;;;;;;;6.22;1.58;;;7.90;99.90;;;;;;5073424;28;20111;-53
2022/09/25 06:17:22;;;;;;;2.10;1.35;;;8.00;99.90;;;;;;5073379;28;20044;-54
2022/09/25 06:19:48;;;;;;;6.07;1.80;;;8.10;99.90;;;;;;5073565;28;20043;-54
2022/09/25 06:22:13;;;;;;;4.63;1.42;;;8.10;99.90;;;;;;5073890;28;20041;-53
2022/09/25 06:24:39;;;;;;;4.00;1.50;;;8.10;99.90;;;;;;5073666;28;20041;-54
2022/09/25 06:27:06;;;;;;;5.55;1.77;;;8.10;99.90;;;;;;5072607;28;20043;-55
2022/09/25 06:29:32;;;;;;;4.72;1.70;;;8.30;99.90;;;;;;5071075;28;20029;-54
2022/09/25 06:31:57;;;;;;;3.00;2.00;;;8.50;99.90;;;;;;5073484;28;20039;-53
2022/09/25 06:34:23;;;;;;;4.88;2.20;;;8.30;99.90;;;;;;5073489;28;20479;-53
2022/09/25 06:36:49;;;;;;;3.80;2.03;;;8.40;99.90;;;;;;5073547;28;20445;-54
2022/09/25 06:39:14;;;;;;;2.78;2.00;;;8.40;99.90;;;;;;5072114;28;20101;-54
2022/09/25 06:41:40;;;;;;;6.50;2.25;;;8.60;99.90;;;;;;5073402;28;20123;-55
2022/09/25 06:44:08;;;;;;;6.70;2.83;;;8.70;99.90;;;;;;5073367;28;20035;-55
2022/09/25 06:46:34;;;;;;;5.22;2.20;;;8.80;99.90;;;;;;5073414;28;20041;-53
2022/09/25 06:49:00;;;;;;;6.72;2.67;;;8.90;99.90;;;;;;5073318;28;20068;-55
2022/09/25 06:51:31;;;;;;;6.53;2.58;;;8.90;99.90;;;;;;5073389;28;20491;-56
2022/09/25 06:53:57;;;;;;;7.82;2.72;;;9.00;99.90;;;;;;5073245;28;20059;-55
2022/09/25 06:56:23;;;;;;;6.75;2.58;;;9.20;99.90;;;;;;5072550;28;20036;-54
2022/09/25 06:58:49;;;;;;;10.57;3.10;;;9.30;99.90;;;;;;5072401;28;20043;-55
2022/09/25 07:01:15;;;;;;;7.82;3.30;;;9.60;99.90;;;;;;5072479;28;20360;-54
2022/09/25 07:03:44;;;;;;;7.57;2.88;;;9.70;99.90;;;;;;5073219;28;20040;-54
2022/09/25 07:06:21;;;;;;;6.40;2.63;;;10.00;99.90;;;;;;5073520;28;20045;-54
2022/09/25 07:08:48;;;;;;;7.50;2.35;;;10.40;99.90;;;;;;5073123;28;20033;-54
2022/09/25 07:11:19;;;;;;;8.05;2.35;;;10.70;99.90;;;;;;5073158;28;20070;-54
2022/09/25 07:13:44;;;;;;;6.28;2.10;;;11.20;99.90;;;;;;5071696;28;20439;-54
2022/09/25 07:16:15;;;;;;;8.65;1.90;;;11.60;99.90;;;;;;5073098;28;20124;-56
2022/09/25 07:18:42;;;;;;;6.30;2.42;;;12.00;99.90;;;;;;5073296;28;20119;-54
2022/09/25 07:21:12;;;;;;;5.85;1.83;;;12.30;99.90;;;;;;5072952;28;20067;-54
2022/09/25 07:23:38;;;;;;;4.75;1.60;;;12.60;99.90;;;;;;5073095;28;20075;-56
2022/09/25 07:26:12;;;;;;;5.63;1.67;;;13.10;99.90;;;;;;5072634;28;20032;-55
2022/09/25 07:28:39;;;;;;;4.63;1.63;;;13.70;99.90;;;;;;5074282;28;20037;-55
2022/09/25 07:31:33;;;;;;;4.25;1.20;;;14.20;99.90;;;;;;5076122;28;20064;-56
2022/09/25 07:34:01;;;;;;;3.95;1.95;;;14.40;99.90;;;;;;5034433;28;20077;-56
2022/09/25 07:36:27;;;;;;;5.68;2.28;;;14.40;99.90;;;;;;5034323;28;20053;-55
2022/09/25 07:38:53;;;;;;;6.38;1.33;;;14.20;99.90;;;;;;5034276;28;20144;-55
2022/09/25 07:41:21;;;;;;;5.47;1.63;;;14.10;99.90;;;;;;5034128;28;20042;-56
2022/09/25 07:43:51;;;;;;;7.47;1.70;;;14.00;99.90;;;;;;5034181;28;20045;-58
2022/09/25 07:46:17;;;;;;;13.13;3.50;;;14.00;99.90;;;;;;5034509;28;20041;-55
2022/09/25 07:48:42;;;;;;;10.27;2.30;;;13.80;99.90;;;;;;5034140;28;20500;-53
2022/09/25 07:51:10;;;;;;;5.85;2.05;;;13.70;99.90;;;;;;5034035;28;20096;-54
2022/09/25 07:53:37;;;;;;;3.95;1.73;;;13.80;99.90;;;;;;5033877;28;20054;-52
2022/09/25 07:56:03;;;;;;;4.28;1.20;;;14.00;99.90;;;;;;5033569;28;20049;-53
2022/09/25 07:58:29;;;;;;;5.05;0.93;;;14.30;99.90;;;;;;5033004;28;20117;-54
2022/09/25 08:00:59;;;;;;;2.20;0.70;;;14.60;99.90;;;;;;5032976;28;20160;-53
2022/09/25 08:03:25;;;;;;;3.17;1.05;;;14.70;99.90;;;;;;5033534;28;20037;-54
2022/09/25 08:05:58;;;;;;;3.95;0.68;;;14.60;99.90;;;;;;5033858;28;20476;-54
2022/09/25 08:08:25;;;;;;;3.30;0.75;;;14.70;99.90;;;;;;5033601;28;20053;-54
2022/09/25 08:10:51;;;;;;;4.10;1.10;;;14.90;99.90;;;;;;5054242;28;20056;-55
2022/09/25 08:13:19;;;;;;;1.77;0.50;;;15.30;99.90;;;;;;5075531;28;20116;-54
2022/09/25 08:15:45;;;;;;;2.17;0.60;;;15.20;99.90;;;;;;5074499;28;20070;-54
2022/09/25 08:18:10;;;;;;;1.05;0.43;;;15.20;99.90;;;;;;5075644;28;20215;-54
2022/09/25 08:20:39;;;;;;;1.65;0.60;;;15.20;99.90;;;;;;5075575;28;20044;-55
2022/09/25 08:23:06;;;;;;;3.27;1.17;;;15.50;99.90;;;;;;5075624;28;20426;-55
2022/09/25 08:25:31;;;;;;;3.45;1.20;;;15.90;99.90;;;;;;5075368;28;20041;-55
2022/09/25 08:27:57;;;;;;;1.58;0.70;;;15.80;99.90;;;;;;5073364;28;20467;-55
2022/09/25 08:30:23;;;;;;;4.32;1.10;;;15.50;99.90;;;;;;5074701;28;20449;-56
2022/09/25 08:32:51;;;;;;;3.65;0.80;;;15.30;99.90;;;;;;5075367;28;20081;-56
2022/09/25 08:35:17;;;;;;;3.67;0.98;;;14.90;99.90;;;;;;5075211;28;20075;-55
2022/09/25 08:37:44;;;;;;;4.18;0.85;;;14.80;99.90;;;;;;5075110;28;20528;-55
2022/09/25 08:40:23;;;;;;;6.57;1.50;;;14.50;99.90;;;;;;5074739;28;20069;-55
2022/09/25 08:42:52;;;;;;;4.80;1.05;;;14.30;99.90;;;;;;5075068;28;20040;-55
2022/09/25 08:51:17;;;;;;;9.85;1.85;;;13.90;99.90;;;;;;5074963;28;20094;-55
2022/09/25 08:53:44;;;;;;;4.32;1.25;;;13.90;99.90;;;;;;5074664;28;20080;-55
2022/09/25 08:56:18;;;;;;;6.72;1.23;;;13.70;99.90;;;;;;5074943;28;20124;-55
2022/09/25 08:58:53;;;;;;;6.90;2.00;;;13.70;99.90;;;;;;5073956;28;20131;-56
2022/09/25 09:01:23;;;;;;;2.58;0.88;;;13.70;99.90;;;;;;5074014;28;20463;-53
2022/09/25 09:04:04;;;;;;;4.70;1.35;;;13.60;99.90;;;;;;5074768;28;20037;-55
2022/09/25 09:06:31;;;;;;;7.07;1.65;;;13.50;99.90;;;;;;5074676;28;20036;-55
2022/09/25 09:09:25;;;;;;;8.07;1.23;;;13.50;99.90;;;;;;5074651;28;20115;-55
2022/09/25 09:12:00;;;;;;;6.25;1.20;;;13.40;99.90;;;;;;5074563;28;20040;-55
2022/09/25 09:14:30;;;;;;;3.05;1.23;;;13.30;99.90;;;;;;5074578;28;20085;-55
2022/09/25 09:17:04;;;;;;;3.38;1.00;;;13.30;99.90;;;;;;5074451;28;20032;-55
2022/09/25 09:19:30;;;;;;;4.68;1.08;;;13.30;99.90;;;;;;5074255;28;20036;-54
2022/09/25 09:22:12;;;;;;;4.18;0.80;;;13.30;99.90;;;;;;5074382;28;20391;-55
2022/09/25 09:25:01;;;;;;;2.08;0.70;;;13.30;99.90;;;;;;5074421;28;20082;-56
2022/09/25 09:27:47;;;;;;;6.78;0.82;;;13.30;99.90;;;;;;5073268;28;20033;-55
2022/09/25 09:30:25;;;;;;;5.28;0.80;;;13.40;99.90;;;;;;5073423;28;20037;-55
2022/09/25 09:33:12;;;;;;;4.70;1.00;;;13.40;99.90;;;;;;5074219;28;20036;-55
2022/09/25 09:35:44;;;;;;;3.17;0.93;;;13.40;99.90;;;;;;5074236;28;20036;-53
2022/09/25 09:38:35;;;;;;;3.63;1.00;;;13.60;99.90;;;;;;5074093;28;20079;-54
2022/09/25 09:41:25;;;;;;;4.10;1.10;;;13.70;99.90;;;;;;5073502;28;20052;-55
2022/09/25 09:43:51;;;;;;;3.35;1.38;;;13.80;99.90;;;;;;5074076;28;20128;-54
2022/09/25 09:46:43;;;;;;;3.28;1.10;;;13.90;99.90;;;;;;5074108;28;20074;-55
2022/09/25 09:49:15;;;;;;;4.03;0.80;;;14.00;99.90;;;;;;5074090;28;20047;-56
2022/09/25 09:51:53;;;;;;;3.80;1.30;;;14.10;99.90;;;;;;5073125;28;20472;-56
2022/09/25 09:54:42;;;;;;;6.38;1.00;;;14.10;99.90;;;;;;5073527;28;20060;-55
2022/09/25 09:57:24;;;;;;;5.20;0.95;;;14.10;99.90;;;;;;5031251;28;20045;-56
2022/09/25 09:59:57;;;;;;;4.32;0.90;;;14.20;99.90;;;;;;5030977;28;20052;-57
2022/09/25 10:02:28;;;;;;;6.75;1.55;;;14.30;99.90;;;;;;5031176;28;20052;-55
2022/09/25 10:04:56;;;;;;;5.40;1.30;;;14.50;99.90;;;;;;5031832;28;20096;-56
2022/09/25 10:07:23;;;;;;;5.28;0.70;;;14.60;99.90;;;;;;5031542;28;20061;-55
2022/09/25 10:09:49;;;;;;;6.10;1.55;;;14.70;99.90;;;;;;5031715;28;20109;-56
2022/09/25 10:12:33;;;;;;;4.60;1.00;;;14.60;99.90;;;;;;5015229;28;20084;-55
2022/09/25 10:15:05;;;;;;;4.22;0.82;;;14.80;99.90;;;;;;5031516;28;20104;-55
2022/09/25 10:17:32;;;;;;;5.97;0.70;;;14.70;99.90;;;;;;5031436;28;20116;-55
2022/09/25 10:20:02;;;;;;;2.40;0.70;;;14.80;99.90;;;;;;5031458;28;20393;-55
2022/09/25 10:22:40;;;;;;;3.50;1.00;;;14.80;99.90;;;;;;5031889;28;20061;-56
2022/09/25 10:25:06;;;;;;;2.15;1.08;;;14.80;99.90;;;;;;5031589;28;20037;-56
2022/09/25 10:27:32;;;;;;;4.13;0.70;;;14.80;99.90;;;;;;5014436;28;20535;-56
2022/09/25 10:30:03;;;;;;;1.90;0.98;;;14.80;99.90;;;;;;5030578;28;20578;-56
2022/09/25 10:32:31;;;;;;;3.80;0.73;;;14.80;99.90;;;;;;5030895;28;20038;-56
2022/09/25 10:34:58;;;;;;;3.88;0.73;;;14.80;99.90;;;;;;5065294;28;20410;-55
2022/09/25 10:37:34;;;;;;;6.80;0.90;;;14.80;99.90;;;;;;5073476;28;20436;-56
2022/09/25 10:40:06;;;;;;;3.65;0.73;;;14.90;99.90;;;;;;5073218;28;20045;-55
2022/09/25 10:42:40;;;;;;;2.83;0.60;;;14.90;99.90;;;;;;5073481;28;20093;-56
2022/09/25 10:45:29;;;;;;;1.58;0.50;;;15.00;99.90;;;;;;5073461;28;20033;-56
2022/09/25 10:50:39;;;;;;;1.13;0.73;;;15.20;99.90;;;;;;5073304;28;20278;-56
2022/09/25 10:53:25;;;;;;;3.45;0.65;;;15.40;99.90;;;;;;5073047;28;20047;-56
2022/09/25 10:55:54;;;;;;;5.78;0.47;;;15.60;99.90;;;;;;5073221;28;20052;-57
2022/09/25 10:58:26;;;;;;;4.30;0.60;;;15.50;99.90;;;;;;5073328;28;20040;-56
2022/09/25 11:00:56;;;;;;;1.75;0.40;;;15.60;99.90;;;;;;5072906;28;20049;-56
2022/09/25 11:03:45;;;;;;;9.93;0.65;;;15.70;99.90;;;;;;5076664;28;20053;-57
2022/09/25 11:06:24;;;;;;;1.83;0.32;;;15.60;99.90;;;;;;5077089;28;20107;-56
2022/09/25 11:09:03;;;;;;;0.98;0.30;;;15.60;99.90;;;;;;5077042;28;20066;-57
2022/09/25 11:11:29;;;;;;;0.85;0.40;;;15.80;99.90;;;;;;5076912;28;20073;-57
2022/09/25 11:13:57;;;;;;;4.32;0.40;;;15.80;99.90;;;;;;5076632;28;20116;-56
2022/09/25 11:16:46;;;;;;;0.80;0.35;;;16.20;99.90;;;;;;5076888;28;20394;-56
2022/09/25 11:19:27;;;;;;;1.67;0.40;;;16.40;99.90;;;;;;5076843;28;20044;-57
2022/09/25 11:22:08;;;;;;;2.22;0.50;;;16.50;99.90;;;;;;5076693;28;20080;-56
2022/09/25 11:24:40;;;;;;;1.15;0.40;;;16.70;99.90;;;;;;5076697;28;20036;-55
2022/09/25 11:27:31;;;;;;;1.02;0.40;;;16.80;99.90;;;;;;5076423;28;20044;-56
2022/09/25 11:30:19;;;;;;;2.00;0.95;;;16.70;99.90;;;;;;5076313;28;20479;-56
2022/09/25 11:33:03;;;;;;;2.58;0.50;;;16.60;99.90;;;;;;5076559;28;20037;-55
2022/09/25 11:35:49;;;;;;;1.92;0.47;;;17.00;99.90;;;;;;5075440;28;20047;-56
2022/09/25 11:41:39;;;;;;;2.67;0.40;;;17.30;99.90;;;;;;5076168;28;20097;-56
2022/09/25 11:44:30;;;;;;;5.10;0.70;;;17.70;99.90;;;;;;5076376;28;20068;-56
2022/09/25 11:47:17;;;;;;;6.95;0.85;;;18.00;99.90;;;;;;5075542;28;20475;-56
2022/09/25 11:49:50;;;;;;;2.15;0.70;;;18.00;99.90;;;;;;5076301;28;20078;-55
2022/09/25 11:52:28;;;;;;;1.77;0.50;;;17.80;99.90;;;;;;5076201;28;20382;-55
2022/09/25 11:55:14;;;;;;;1.55;0.47;;;17.80;99.90;;;;;;5075820;28;20141;-56
2022/09/25 11:58:19;;;;;;;4.30;0.32;;;17.80;99.90;;;;;;5076167;28;20037;-56
2022/09/25 12:01:09;;;;;;;4.43;0.50;;;18.20;99.90;;;;;;5076035;28;20044;-55
2022/09/25 12:04:05;;;;;;;1.63;0.47;;;18.00;99.90;;;;;;5075940;28;20044;-56
2022/09/25 12:06:53;;;;;;;4.72;0.70;;;17.70;99.90;;;;;;5076012;28;20395;-56
2022/09/25 12:09:44;;;;;;;2.47;0.50;;;17.40;99.90;;;;;;5075902;28;20111;-56
2022/09/25 12:12:32;;;;;;;4.63;0.73;;;17.20;99.90;;;;;;5075923;28;20036;-56
2022/09/25 12:15:23;;;;;;;5.22;1.65;;;17.30;99.90;;;;;;5074970;28;20044;-57
2022/09/25 12:18:06;;;;;;;4.28;0.80;;;17.10;99.90;;;;;;5075776;28;20045;-56
2022/09/25 12:21:10;;;;;;;2.90;0.70;;;16.90;99.90;;;;;;5075654;28;20044;-59
2022/09/25 12:23:43;;;;;;;4.13;0.95;;;16.80;99.90;;;;;;5033570;28;20049;-55
2022/09/25 12:26:25;;;;;;;2.63;0.60;;;16.80;99.90;;;;;;5033424;28;20045;-56
2022/09/25 12:29:45;;;;;;;2.72;0.75;;;17.00;99.90;;;;;;5033449;28;20125;-56
2022/09/25 12:32:38;;;;;;;4.13;0.50;;;17.10;99.90;;;;;;4955261;29;20039;-56
2022/09/25 12:35:28;;;;;;;1.65;0.35;;;17.20;99.90;;;;;;4955259;29;20095;-56
2022/09/25 12:38:10;;;;;;;2.25;0.63;;;17.40;99.90;;;;;;4955169;29;20039;-55
2022/09/25 12:40:43;;;;;;;2.22;0.40;;;17.60;99.90;;;;;;4955119;29;20090;-55
2022/09/25 12:43:40;;;;;;;4.40;0.75;;;17.40;99.90;;;;;;4939337;29;20047;-56
2022/09/25 12:46:49;;;;;;;1.55;0.55;;;17.30;99.90;;;;;;4954983;29;20051;-55
2022/09/25 12:49:40;;;;;;;2.13;0.40;;;17.30;99.90;;;;;;4916624;29;20044;-56
2022/09/25 12:52:13;;;;;;;1.98;0.57;;;17.50;99.90;;;;;;4900836;29;20180;-55
2022/09/25 12:54:55;;;;;;;3.15;0.73;;;17.60;99.90;;;;;;4916488;29;20060;-56
2022/09/25 12:57:28;;;;;;;3.38;0.50;;;17.80;99.90;;;;;;4916570;29;20044;-56
2022/09/25 13:00:13;;;;;;;6.57;0.70;;;17.90;99.90;;;;;;4924431;29;20055;-56
2022/09/25 13:03:00;;;;;;;3.45;0.70;;;18.00;99.90;;;;;;4954639;29;20047;-56
2022/09/25 13:05:36;;;;;;;1.80;0.40;;;18.10;99.90;;;;;;4962512;28;20105;-55
2022/09/25 13:08:30;;;;;;;5.97;0.70;;;18.00;99.90;;;;;;4993350;28;20050;-56
2022/09/25 13:11:17;;;;;;;4.25;0.50;;;18.20;99.90;;;;;;4993147;28;20049;-56
2022/09/25 13:13:47;;;;;;;3.85;0.68;;;18.20;99.90;;;;;;4993267;28;20069;-55
2022/09/25 13:16:15;;;;;;;1.77;0.52;;;18.30;99.90;;;;;;4993211;28;20046;-56
2022/09/25 13:18:48;;;;;;;2.85;0.88;;;18.30;99.90;;;;;;4993038;28;20050;-55
2022/09/25 13:21:31;;;;;;;6.65;0.90;;;18.30;99.90;;;;;;4992911;28;20047;-55
2022/09/25 13:23:58;;;;;;;5.88;1.20;;;18.30;99.90;;;;;;5003755;28;20049;-56
2022/09/25 13:26:25;;;;;;;2.83;0.60;;;18.40;99.90;;;;;;5074328;28;20076;-56
2022/09/25 13:29:30;;;;;;;3.45;0.80;;;18.30;99.90;;;;;;5074301;28;20036;-57
2022/09/25 13:32:07;;;;;;;7.68;0.90;;;18.20;99.90;;;;;;5074413;28;20048;-56
2022/09/25 13:34:40;;;;;;;5.68;0.77;;;18.30;99.90;;;;;;5074184;28;20044;-57
2022/09/25 13:37:11;;;;;;;3.50;0.63;;;18.30;99.90;;;;;;5074195;28;20040;-55
2022/09/25 13:42:44;;;;;;;2.58;0.50;;;18.30;99.90;;;;;;5074068;28;20040;-57
2022/09/25 13:45:26;;;;;;;5.10;0.70;;;18.00;99.90;;;;;;5074058;28;20487;-57